Chembulk Savannah — V7OP7 — position and weather

sailwx.info

Track history (hours):
 
Tides and Currents Weather Stations Pressure Air Temp Water Temp Dewpoint Dewpoint Depression Visibility Wind Speed Wind Dir Waves Ship Positions

Chembulk Savannah

Last reported at 2017-Oct-14 11:27 UTC. Time now 2017-Oct-22 15:45 UTC.
Position N 30°01' W 093°59'.
Warning: this ship's position is 8 days out of date.

Length 153 m; draft 8.6 m.

Type: Ship (hazmat cat B). MMSI: 538006571.

Date/timePositionNaut miles runAvg speedWind from/ knotsBaromVisibWave heightAir tempDewpointWater temp
2017-Oct-14 11:27N 30°01' W 093°59'0 0.3
2017-Oct-14 10:59N 30°01' W 093°59'1 1.8
2017-Oct-14 10:30N 30°01' W 093°58'5 7.1
2017-Oct-14 09:48N 29°59' W 093°52'2 5.8
2017-Oct-14 09:30N 29°57' W 093°52'5 9.4
2017-Oct-14 09:00N 29°54' W 093°55'5 8.3
2017-Oct-14 08:27N 29°50' W 093°57'4 8.6
2017-Oct-14 08:00N 29°46' W 093°55'611.7
2017-Oct-14 07:30N 29°42' W 093°51'1010.9
2017-Oct-14 06:33N 29°34' W 093°43'2 0.7
2017-Oct-14 04:11N 29°35' W 093°45'0 0.0
2017-Oct-13 08:08N 29°35' W 093°45'0 0.0
2017-Oct-13 07:56N 29°35' W 093°45'0 0.0
2017-Oct-13 07:26N 29°35' W 093°45'0 0.0
2017-Oct-13 06:59N 29°35' W 093°45'0 0.0
2017-Oct-13 06:29N 29°35' W 093°45'0 0.0
2017-Oct-13 05:20N 29°35' W 093°45'0 0.0
2017-Oct-13 02:44N 29°35' W 093°45'57 3.1
2017-Oct-12 08:22N 29°26' W 094°50'411.8
2017-Oct-12 08:00N 29°30' W 094°52'611.9
2017-Oct-12 07:30N 29°35' W 094°56'611.9
2017-Oct-12 07:00N 29°40' W 094°59'5 9.2
2017-Oct-12 06:30N 29°44' W 095°02'3 6.8
2017-Oct-12 06:00N 29°45' W 095°06'3 5.9
2017-Oct-12 05:30N 29°44' W 095°10'0 0.4
2017-Oct-12 05:00N 29°44' W 095°10'  
2017-Oct-08 20:27N 29°44' W 095°01'0 0.2
2017-Oct-08 20:01N 29°44' W 095°01'3 5.8
2017-Oct-08 19:31N 29°41' W 094°59'612.3
2017-Oct-08 19:01N 29°36' W 094°57'713.0
2017-Oct-08 18:31N 29°30' W 094°52'612.4
2017-Oct-08 18:00N 29°24' W 094°49'6 0.5
2017-Oct-08 06:39N 29°21' W 094°44'0 1.8
2017-Oct-08 06:25N 29°21' W 094°44'7 8.7
2017-Oct-08 05:40N 29°25' W 094°50'211.2
2017-Oct-08 05:30N 29°26' W 094°50'510.9
2017-Oct-08 05:00N 29°31' W 094°53'611.4
2017-Oct-08 04:30N 29°36' W 094°57'510.9
2017-Oct-08 04:00N 29°41' W 094°59'4 7.9
2017-Oct-08 03:30N 29°44' W 095°02'3 6.3
2017-Oct-08 03:00N 29°45' W 095°06'0 0.0
2017-Oct-06 21:52N 29°45' W 095°06'1 1.5
2017-Oct-06 21:29N 29°45' W 095°06'3 7.0
2017-Oct-06 21:00N 29°44' W 095°02'5 9.4
2017-Oct-06 20:30N 29°40' W 094°59'612.3
2017-Oct-06 20:01N 29°35' W 094°56'713.4
2017-Oct-06 19:31N 29°29' W 094°52'713.5
2017-Oct-06 18:58N 29°22' W 094°48'3 0.2
2017-Oct-06 03:19N 29°26' W 094°50'413.1
2017-Oct-06 03:00N 29°29' W 094°52'612.9
2017-Oct-06 02:30N 29°35' W 094°56'5 9.1
2017-Oct-06 02:00N 29°37' W 095°00'1 2.0
2017-Oct-06 01:30N 29°37' W 095°02'0 0.0
2017-Oct-06 01:00N 29°37' W 095°02'0 0.0
2017-Oct-06 00:30N 29°37' W 095°02'0 0.0
2017-Oct-06 00:00N 29°37' W 095°02'0 0.0
2017-Oct-05 23:27N 29°37' W 095°02'0 0.0
2017-Oct-05 22:57N 29°37' W 095°02'0 0.0
2017-Oct-05 22:27N 29°37' W 095°02'0 0.0
2017-Oct-05 22:00N 29°37' W 095°02'0 0.0
2017-Oct-05 21:30N 29°37' W 095°02'0 0.0
2017-Oct-05 21:00N 29°37' W 095°02'0 0.0
2017-Oct-05 20:30N 29°37' W 095°02'0 0.0
2017-Oct-05 19:12N 29°37' W 095°02'0 0.0
2017-Oct-05 18:03N 29°37' W 095°02'0 0.0
2017-Oct-05 17:45N 29°37' W 095°02'0 0.0
2017-Oct-05 17:30N 29°37' W 095°02'0 0.0
2017-Oct-05 17:00N 29°37' W 095°02'0 0.0
2017-Oct-05 14:09N 29°37' W 095°02'0 0.0
2017-Oct-05 13:57N 29°37' W 095°02'0 0.0
2017-Oct-05 13:30N 29°37' W 095°02'0 0.0
2017-Oct-05 12:06N 29°37' W 095°02'0 0.0
2017-Oct-05 12:00N 29°37' W 095°02'0 0.0
2017-Oct-05 11:27N 29°37' W 095°02'0 0.0
2017-Oct-05 10:57N 29°37' W 095°02'0 0.0
2017-Oct-05 10:30N 29°37' W 095°02'0 0.0
2017-Oct-05 09:57N 29°37' W 095°02'0 0.0
2017-Oct-05 09:30N 29°37' W 095°02'0 0.0
2017-Oct-05 08:54N 29°37' W 095°02'0 0.0
2017-Oct-05 08:06N 29°37' W 095°02'0 0.0
2017-Oct-05 07:45N 29°37' W 095°02'0 0.0
2017-Oct-05 07:27N 29°37' W 095°02'0 0.0
2017-Oct-05 06:57N 29°37' W 095°02'0 0.0
2017-Oct-05 06:27N 29°37' W 095°02'0 0.0
2017-Oct-05 05:57N 29°37' W 095°02'0 0.0
2017-Oct-05 05:30N 29°37' W 095°02'0 0.6
2017-Oct-05 05:01N 29°37' W 095°01'3 5.2
2017-Oct-05 04:31N 29°37' W 094°58'5 9.0
2017-Oct-05 04:01N 29°33' W 094°55'4 8.3
2017-Oct-05 03:30N 29°30' W 094°52'510.7
2017-Oct-05 03:00N 29°25' W 094°50'1 0.1
2017-Oct-04 18:28N 29°26' W 094°50'612.1
2017-Oct-04 18:00N 29°31' W 094°53'612.0
2017-Oct-04 17:30N 29°36' W 094°57'611.0
2017-Oct-04 17:00N 29°41' W 094°59'4 7.6
2017-Oct-04 16:30N 29°44' W 095°03'3 5.9
2017-Oct-04 16:00N 29°45' W 095°06'  
Track history (hours):
 
Tides and Currents Weather Stations Pressure Air Temp Water Temp Dewpoint Dewpoint Depression Visibility Wind Speed Wind Dir Waves Ship Positions

Chembulk Savannah

Last reported at 2017-Oct-14 11:27 UTC. Time now 2017-Oct-22 15:45 UTC.
Position N 30°01' W 093°59'.
Warning: this ship's position is 8 days out of date.

Length 153 m; draft 8.6 m.

Type: Ship (hazmat cat B). MMSI: 538006571.

Date/timePositionNaut miles runAvg speedWind from/ knotsBaromVisibWave heightAir tempDewpointWater temp
2017-Oct-14 11:27N 30°01' W 093°59'0 0.3
2017-Oct-14 10:59N 30°01' W 093°59'1 1.8
2017-Oct-14 10:30N 30°01' W 093°58'5 7.1
2017-Oct-14 09:48N 29°59' W 093°52'2 5.8
2017-Oct-14 09:30N 29°57' W 093°52'5 9.4
2017-Oct-14 09:00N 29°54' W 093°55'5 8.3
2017-Oct-14 08:27N 29°50' W 093°57'4 8.6
2017-Oct-14 08:00N 29°46' W 093°55'611.7
2017-Oct-14 07:30N 29°42' W 093°51'1010.9
2017-Oct-14 06:33N 29°34' W 093°43'2 0.7
2017-Oct-14 04:11N 29°35' W 093°45'0 0.0
2017-Oct-13 08:08N 29°35' W 093°45'0 0.0
2017-Oct-13 07:56N 29°35' W 093°45'0 0.0
2017-Oct-13 07:26N 29°35' W 093°45'0 0.0
2017-Oct-13 06:59N 29°35' W 093°45'0 0.0
2017-Oct-13 06:29N 29°35' W 093°45'0 0.0
2017-Oct-13 05:20N 29°35' W 093°45'0 0.0
2017-Oct-13 02:44N 29°35' W 093°45'57 3.1
2017-Oct-12 08:22N 29°26' W 094°50'411.8
2017-Oct-12 08:00N 29°30' W 094°52'611.9
2017-Oct-12 07:30N 29°35' W 094°56'611.9
2017-Oct-12 07:00N 29°40' W 094°59'5 9.2
2017-Oct-12 06:30N 29°44' W 095°02'3 6.8
2017-Oct-12 06:00N 29°45' W 095°06'3 5.9
2017-Oct-12 05:30N 29°44' W 095°10'0 0.4
2017-Oct-12 05:00N 29°44' W 095°10'  
2017-Oct-08 20:27N 29°44' W 095°01'0 0.2
2017-Oct-08 20:01N 29°44' W 095°01'3 5.8
2017-Oct-08 19:31N 29°41' W 094°59'612.3
2017-Oct-08 19:01N 29°36' W 094°57'713.0
2017-Oct-08 18:31N 29°30' W 094°52'612.4
2017-Oct-08 18:00N 29°24' W 094°49'6 0.5
2017-Oct-08 06:39N 29°21' W 094°44'0 1.8
2017-Oct-08 06:25N 29°21' W 094°44'7 8.7
2017-Oct-08 05:40N 29°25' W 094°50'211.2
2017-Oct-08 05:30N 29°26' W 094°50'510.9
2017-Oct-08 05:00N 29°31' W 094°53'611.4
2017-Oct-08 04:30N 29°36' W 094°57'510.9
2017-Oct-08 04:00N 29°41' W 094°59'4 7.9
2017-Oct-08 03:30N 29°44' W 095°02'3 6.3
2017-Oct-08 03:00N 29°45' W 095°06'0 0.0
2017-Oct-06 21:52N 29°45' W 095°06'1 1.5
2017-Oct-06 21:29N 29°45' W 095°06'3 7.0
2017-Oct-06 21:00N 29°44' W 095°02'5 9.4
2017-Oct-06 20:30N 29°40' W 094°59'612.3
2017-Oct-06 20:01N 29°35' W 094°56'713.4
2017-Oct-06 19:31N 29°29' W 094°52'713.5
2017-Oct-06 18:58N 29°22' W 094°48'3 0.2
2017-Oct-06 03:19N 29°26' W 094°50'413.1
2017-Oct-06 03:00N 29°29' W 094°52'612.9
2017-Oct-06 02:30N 29°35' W 094°56'5 9.1
2017-Oct-06 02:00N 29°37' W 095°00'1 2.0
2017-Oct-06 01:30N 29°37' W 095°02'0 0.0
2017-Oct-06 01:00N 29°37' W 095°02'0 0.0
2017-Oct-06 00:30N 29°37' W 095°02'0 0.0
2017-Oct-06 00:00N 29°37' W 095°02'0 0.0
2017-Oct-05 23:27N 29°37' W 095°02'0 0.0
2017-Oct-05 22:57N 29°37' W 095°02'0 0.0
2017-Oct-05 22:27N 29°37' W 095°02'0 0.0
2017-Oct-05 22:00N 29°37' W 095°02'0 0.0
2017-Oct-05 21:30N 29°37' W 095°02'0 0.0
2017-Oct-05 21:00N 29°37' W 095°02'0 0.0
2017-Oct-05 20:30N 29°37' W 095°02'0 0.0
2017-Oct-05 19:12N 29°37' W 095°02'0 0.0
2017-Oct-05 18:03N 29°37' W 095°02'0 0.0
2017-Oct-05 17:45N 29°37' W 095°02'0 0.0
2017-Oct-05 17:30N 29°37' W 095°02'0 0.0
2017-Oct-05 17:00N 29°37' W 095°02'0 0.0
2017-Oct-05 14:09N 29°37' W 095°02'0 0.0
2017-Oct-05 13:57N 29°37' W 095°02'0 0.0
2017-Oct-05 13:30N 29°37' W 095°02'0 0.0
2017-Oct-05 12:06N 29°37' W 095°02'0 0.0
2017-Oct-05 12:00N 29°37' W 095°02'0 0.0
2017-Oct-05 11:27N 29°37' W 095°02'0 0.0
2017-Oct-05 10:57N 29°37' W 095°02'0 0.0
2017-Oct-05 10:30N 29°37' W 095°02'0 0.0
2017-Oct-05 09:57N 29°37' W 095°02'0 0.0
2017-Oct-05 09:30N 29°37' W 095°02'0 0.0
2017-Oct-05 08:54N 29°37' W 095°02'0 0.0
2017-Oct-05 08:06N 29°37' W 095°02'0 0.0
2017-Oct-05 07:45N 29°37' W 095°02'0 0.0
2017-Oct-05 07:27N 29°37' W 095°02'0 0.0
2017-Oct-05 06:57N 29°37' W 095°02'0 0.0
2017-Oct-05 06:27N 29°37' W 095°02'0 0.0
2017-Oct-05 05:57N 29°37' W 095°02'0 0.0
2017-Oct-05 05:30N 29°37' W 095°02'0 0.6
2017-Oct-05 05:01N 29°37' W 095°01'3 5.2
2017-Oct-05 04:31N 29°37' W 094°58'5 9.0
2017-Oct-05 04:01N 29°33' W 094°55'4 8.3
2017-Oct-05 03:30N 29°30' W 094°52'510.7
2017-Oct-05 03:00N 29°25' W 094°50'1 0.1
2017-Oct-04 18:28N 29°26' W 094°50'612.1
2017-Oct-04 18:00N 29°31' W 094°53'612.0
2017-Oct-04 17:30N 29°36' W 094°57'611.0
2017-Oct-04 17:00N 29°41' W 094°59'4 7.6
2017-Oct-04 16:30N 29°44' W 095°03'3 5.9
2017-Oct-04 16:00N 29°45' W 095°06'  

Dump ship's entire track history